Time;durP1;ratioP1;P1;durP2;ratioP2;P2;SDS_P1;SDS_P2;PMS_P1;PMS_P2;Temp;Humidity;BMP_temperature;BMP_pressure;BME280_temperature;BME280_humidity;BME280_pressure;Samples;Min_cycle;Max_cycle;Signal;HPM_P1;HPM_P2
2023/10/14 00:00:26;;;;;;;9.67;7.03;;;;;;;19.35;89.53;98895.78;5029350;28;20259;-85
2023/10/14 00:02:53;;;;;;;8.80;6.43;;;;;;;19.34;88.78;98896.72;5021887;28;20236;-85
2023/10/14 00:05:21;;;;;;;9.23;6.87;;;;;;;19.30;88.74;98892.63;5040417;28;20217;-85
2023/10/14 00:07:47;;;;;;;9.07;6.67;;;;;;;19.40;87.28;98927.97;5041394;28;20209;-86
2023/10/14 00:10:14;;;;;;;7.70;6.90;;;;;;;19.33;86.68;98932.09;5037097;28;20214;-86
2023/10/14 00:12:42;;;;;;;7.60;6.83;;;;;;;19.32;86.41;98954.22;5019718;28;20736;-85
2023/10/14 00:15:09;;;;;;;7.67;6.40;;;;;;;19.36;86.83;98939.78;5034758;28;20213;-86
2023/10/14 00:17:41;;;;;;;6.63;5.50;;;;;;;19.44;86.73;98937.38;5028318;28;20207;-86
2023/10/14 00:20:10;;;;;;;7.13;6.03;;;;;;;19.45;85.53;98962.88;5026508;28;20370;-86
2023/10/14 00:22:39;;;;;;;6.60;5.50;;;;;;;19.40;84.57;98954.44;5026423;28;20226;-86
2023/10/14 00:25:09;;;;;;;7.00;5.70;;;;;;;19.46;84.05;98979.59;5023620;28;20208;-86
2023/10/14 00:27:35;;;;;;;6.87;5.87;;;;;;;19.52;84.79;98965.03;5022089;28;20212;-86
2023/10/14 00:30:11;;;;;;;9.27;6.23;;;;;;;19.53;86.06;98958.78;5026191;28;20679;-85
2023/10/14 00:32:38;;;;;;;12.30;6.70;;;;;;;19.44;85.03;98955.03;5021581;28;20306;-86
2023/10/14 00:35:09;;;;;;;10.10;7.03;;;;;;;19.50;86.60;98935.19;5037631;28;20203;-86
2023/10/14 00:37:37;;;;;;;7.87;6.53;;;;;;;19.47;85.93;98920.41;5039160;28;20218;-83
2023/10/14 00:40:10;;;;;;;7.13;6.10;;;;;;;19.48;85.81;98916.78;5034343;28;20236;-83
2023/10/14 00:42:37;;;;;;;12.70;6.13;;;;;;;19.52;85.22;98914.75;5039057;28;20288;-82
2023/10/14 00:45:09;;;;;;;9.87;6.90;;;;;;;19.51;85.41;98889.25;5047743;28;20214;-83
2023/10/14 00:47:36;;;;;;;6.60;6.00;;;;;;;19.36;85.99;98897.44;5038758;28;20209;-83
2023/10/14 00:50:20;;;;;;;7.37;5.90;;;;;;;19.43;85.22;98900.44;5047771;28;20207;-83
2023/10/14 00:52:57;;;;;;;7.23;6.00;;;;;;;19.42;84.45;98910.22;5035652;28;20234;-86
2023/10/14 00:55:27;;;;;;;9.40;5.83;;;;;;;19.36;83.67;98939.78;5022274;28;20210;-86
2023/10/14 00:57:55;;;;;;;7.90;5.37;;;;;;;19.36;81.83;98970.69;5018966;28;20263;-83
2023/10/14 01:00:33;;;;;;;6.30;5.17;;;;;;;19.46;81.56;98995.47;5030339;28;20235;-84
2023/10/14 01:03:01;;;;;;;6.97;6.03;;;;;;;19.32;81.02;99004.47;5032785;28;22208;-86
2023/10/14 01:05:29;;;;;;;8.43;5.33;;;;;;;19.45;81.49;99007.03;5028774;28;20231;-85
2023/10/14 01:07:58;;;;;;;8.83;5.43;;;;;;;19.41;78.85;99046.13;5036610;28;20226;-85
2023/10/14 01:10:25;;;;;;;6.17;5.43;;;;;;;19.37;77.77;99063.19;5031988;28;20236;-85
2023/10/14 01:12:54;;;;;;;7.67;5.80;;;;;;;19.47;76.84;99105.66;5017066;28;20232;-85
2023/10/14 01:15:21;;;;;;;7.50;6.00;;;;;;;19.54;76.97;99098.09;5029923;28;20551;-84
2023/10/14 01:17:48;;;;;;;6.60;6.00;;;;;;;19.60;76.55;99108.19;5017287;28;20213;-82
2023/10/14 01:20:26;;;;;;;6.33;5.73;;;;;;;19.54;75.12;99141.28;5029400;28;20203;-83
2023/10/14 01:22:57;;;;;;;7.57;6.07;;;;;;;19.56;76.45;99133.22;5016627;28;20713;-86
2023/10/14 01:25:28;;;;;;;7.03;6.37;;;;;;;19.61;75.60;99126.63;5025316;28;20262;-84
2023/10/14 01:27:58;;;;;;;8.00;6.60;;;;;;;19.63;75.02;99137.09;5028311;28;20302;-83
2023/10/14 01:30:26;;;;;;;6.40;5.87;;;;;;;19.64;74.31;99131.69;5020642;28;20207;-85
2023/10/14 01:32:56;;;;;;;6.60;6.07;;;;;;;19.59;75.76;99115.31;5017242;28;20222;-85
2023/10/14 01:35:26;;;;;;;9.30;6.83;;;;;;;19.75;75.44;99106.19;5026373;28;20217;-85
2023/10/14 01:37:56;;;;;;;7.43;6.47;;;;;;;19.70;74.85;99127.72;5028012;28;20564;-84
2023/10/14 01:40:29;;;;;;;9.60;7.00;;;;;;;19.75;75.81;99111.50;5031697;28;20219;-84
2023/10/14 01:42:58;;;;;;;7.23;6.63;;;;;;;19.67;74.95;99092.69;5019138;28;20230;-84
2023/10/14 01:45:28;;;;;;;6.63;6.03;;;;;;;19.75;75.07;99093.78;5027469;28;20208;-83
2023/10/14 01:48:11;;;;;;;8.47;6.60;;;;;;;19.79;75.63;99091.75;5025408;28;20811;-84
2023/10/14 01:50:38;;;;;;;7.10;6.40;;;;;;;19.76;74.96;99092.84;5034186;28;20229;-85
2023/10/14 01:53:10;;;;;;;8.17;6.03;;;;;;;19.80;74.84;99094.28;5018907;28;20240;-84
2023/10/14 01:55:36;;;;;;;7.47;6.70;;;;;;;19.77;75.67;99083.94;5027218;28;20703;-84
2023/10/14 01:58:03;;;;;;;6.90;6.20;;;;;;;19.69;76.90;99062.47;5033377;28;20710;-86
2023/10/14 02:00:38;;;;;;;7.23;6.47;;;;;;;19.71;78.80;98998.81;5027437;28;20217;-86
2023/10/14 02:03:06;;;;;;;7.93;6.53;;;;;;;19.45;79.91;98975.28;5026457;28;20293;-88
2023/10/14 02:05:39;;;;;;;9.53;6.10;;;;;;;19.53;82.11;98935.78;5025347;28;20211;-85
2023/10/14 02:08:13;;;;;;;7.10;6.00;;;;;;;19.29;84.87;98869.81;5034501;28;20206;-87
2023/10/14 02:10:39;;;;;;;7.77;6.77;;;;;;;19.26;86.82;98817.13;5018430;28;20218;-86
2023/10/14 02:13:06;;;;;;;7.00;6.37;;;;;;;18.96;88.58;98789.53;5025937;28;20232;-85
2023/10/14 02:15:37;;;;;;;7.47;6.60;;;;;;;18.81;89.27;98754.63;5027667;28;20204;-86
2023/10/14 02:18:04;;;;;;;7.03;5.67;;;;;;;18.52;89.39;98746.31;5035874;28;20219;-85
2023/10/14 02:20:38;;;;;;;8.90;6.93;;;;;;;18.70;91.03;98704.38;5021926;28;20207;-86
2023/10/14 02:23:05;;;;;;;7.50;6.80;;;;;;;18.78;90.16;98711.69;5018294;28;20283;-86
2023/10/14 02:25:33;;;;;;;8.87;5.37;;;;;;;18.89;89.52;98732.84;5022533;28;20207;-86
2023/10/14 02:27:59;;;;;;;8.00;5.93;;;;;;;18.16;94.38;98830.13;5015916;28;20242;-81
2023/10/14 02:30:26;;;;;;;7.20;2.90;;;;;;;16.75;100.00;98646.22;5016841;28;20562;-85
2023/10/14 02:32:52;;;;;;;3.63;1.67;;;;;;;15.86;100.00;98573.66;5016411;28;20230;-83
2023/10/14 02:35:18;;;;;;;2.77;1.23;;;;;;;15.78;100.00;98529.47;5023198;28;20203;-83
2023/10/14 02:37:48;;;;;;;1.03;0.83;;;;;;;15.76;100.00;98539.25;5030994;28;20198;-83
2023/10/14 02:40:23;;;;;;;1.40;0.80;;;;;;;15.29;100.00;98559.16;5024520;28;20677;-83
2023/10/14 02:42:57;;;;;;;1.23;0.50;;;;;;;15.06;100.00;98581.72;5015778;28;20773;-84
2023/10/14 02:45:24;;;;;;;2.00;0.70;;;;;;;15.10;100.00;98591.09;5028052;28;20230;-84
2023/10/14 02:47:50;;;;;;;2.80;0.70;;;;;;;14.96;100.00;98604.31;5032425;28;20214;-84
2023/10/14 02:50:24;;;;;;;2.00;0.50;;;;;;;14.95;100.00;98639.41;5031271;28;20215;-84
2023/10/14 02:53:00;;;;;;;0.63;0.53;;;;;;;15.05;100.00;98643.97;5033077;28;20225;-83
2023/10/14 02:55:50;;;;;;;0.50;0.50;;;;;;;14.83;100.00;98667.34;5028528;28;20205;-85
2023/10/14 02:58:15;;;;;;;1.03;0.60;;;;;;;14.10;100.00;98686.75;5019470;28;20210;-81
2023/10/14 03:00:41;;;;;;;0.70;0.60;;;;;;;14.06;100.00;98688.72;5033756;28;20228;-84
2023/10/14 03:03:12;;;;;;;1.67;0.60;;;;;;;14.03;100.00;98698.56;5023227;28;20234;-84
2023/10/14 03:05:51;;;;;;;5.20;1.00;;;;;;;13.97;100.00;98686.66;5039308;28;20224;-83
2023/10/14 03:08:18;;;;;;;1.47;0.70;;;;;;;13.84;100.00;98701.47;5040346;28;20216;-83
2023/10/14 03:10:46;;;;;;;1.30;0.60;;;;;;;13.99;100.00;98718.88;5025799;28;20681;-84
2023/10/14 03:13:15;;;;;;;0.60;0.50;;;;;;;13.91;100.00;98752.63;5019932;28;20707;-84
2023/10/14 03:15:44;;;;;;;0.80;0.70;;;;;;;13.69;100.00;98795.84;5032762;28;20713;-83
2023/10/14 03:18:15;;;;;;;1.00;0.60;;;;;;;13.38;100.00;98801.16;5039221;28;20214;-83
2023/10/14 03:20:45;;;;;;;0.50;0.50;;;;;;;13.11;100.00;98792.13;5038286;28;20213;-83
2023/10/14 03:23:18;;;;;;;0.90;0.90;;;;;;;13.07;100.00;98813.34;5021149;28;20225;-81
2023/10/14 03:25:45;;;;;;;1.00;0.90;;;;;;;13.13;100.00;98833.13;5031283;28;20254;-82
2023/10/14 03:28:14;;;;;;;1.17;0.80;;;;;;;13.34;100.00;98838.94;5030472;28;20268;-83
2023/10/14 03:30:45;;;;;;;1.77;0.60;;;;;;;13.38;100.00;98850.94;5032876;28;20205;-84
2023/10/14 03:33:12;;;;;;;1.50;1.40;;;;;;;13.44;100.00;98863.75;5021942;28;20743;-85
2023/10/14 03:35:41;;;;;;;1.43;0.70;;;;;;;13.35;100.00;98874.72;5025322;28;20670;-83
2023/10/14 03:38:24;;;;;;;1.80;1.10;;;;;;;13.06;100.00;98896.31;5019199;28;20216;-84
2023/10/14 03:41:03;;;;;;;0.80;0.80;;;;;;;13.48;100.00;98884.44;5032271;28;20202;-83
2023/10/14 03:43:34;;;;;;;0.87;0.70;;;;;;;13.43;100.00;98902.19;5038625;28;20215;-84
2023/10/14 03:46:11;;;;;;;1.57;0.70;;;;;;;13.28;100.00;98908.25;5039407;28;20240;-85
2023/10/14 03:48:45;;;;;;;1.47;0.77;;;;;;;13.15;100.00;98910.69;5039110;28;20303;-84
2023/10/14 03:51:12;;;;;;;0.93;0.93;;;;;;;13.05;100.00;98914.75;5038639;28;20331;-85
2023/10/14 03:53:39;;;;;;;2.00;0.60;;;;;;;13.23;100.00;98913.75;5039305;28;20208;-85
2023/10/14 03:56:06;;;;;;;2.73;0.97;;;;;;;13.02;100.00;98946.31;5038950;28;20209;-84
2023/10/14 03:58:33;;;;;;;1.43;0.90;;;;;;;13.31;100.00;98942.19;5039552;28;20209;-84
2023/10/14 04:01:02;;;;;;;1.60;0.80;;;;;;;13.14;100.00;98943.06;5039454;28;20823;-85
2023/10/14 04:03:43;;;;;;;0.80;0.80;;;;;;;13.21;100.00;98952.28;5038925;28;20251;-85
2023/10/14 04:06:09;;;;;;;1.17;0.50;;;;;;;13.14;100.00;98952.69;5029846;28;20239;-84
2023/10/14 04:08:47;;;;;;;0.73;0.70;;;;;;;13.06;100.00;98955.72;5019437;28;20576;-85
2023/10/14 04:11:15;;;;;;;0.80;0.50;;;;;;;13.08;100.00;98961.72;5033850;28;20250;-85
2023/10/14 04:13:50;;;;;;;2.90;0.70;;;;;;;13.16;100.00;98962.19;5038897;28;20703;-85
2023/10/14 04:16:27;;;;;;;1.83;0.83;;;;;;;13.18;100.00;98985.66;5038717;28;20732;-84
2023/10/14 04:18:59;;;;;;;2.17;0.70;;;;;;;12.96;100.00;98991.19;5038951;28;20231;-84
2023/10/14 04:21:35;;;;;;;1.30;0.60;;;;;;;13.18;100.00;99004.00;5038738;28;20707;-84
2023/10/14 04:24:12;;;;;;;3.23;0.73;;;;;;;13.11;100.00;99021.81;5039891;28;20209;-84
2023/10/14 04:26:41;;;;;;;0.77;0.40;;;;;;;13.24;100.00;99019.38;5039639;28;20235;-85
2023/10/14 04:29:16;;;;;;;1.53;0.47;;;;;;;13.16;100.00;99026.81;5038800;28;20288;-86
2023/10/14 04:31:54;;;;;;;5.40;0.70;;;;;;;13.23;100.00;99021.16;5039722;28;20229;-85
2023/10/14 04:34:22;;;;;;;1.60;0.60;;;;;;;13.25;100.00;99028.97;5040463;28;20215;-84
2023/10/14 04:36:55;;;;;;;2.40;0.70;;;;;;;13.24;100.00;99025.50;5040380;28;20237;-83
2023/10/14 04:39:32;;;;;;;0.90;0.60;;;;;;;12.85;100.00;99044.13;5036717;28;20213;-82
2023/10/14 04:42:22;;;;;;;7.30;1.20;;;;;;;12.60;100.00;99081.16;5055434;28;20215;-82
2023/10/14 04:44:55;;;;;;;7.57;2.43;;;;;;;12.23;100.00;99127.38;5057251;28;20255;-84
2023/10/14 04:47:36;;;;;;;5.37;1.30;;;;;;;11.81;100.00;99138.88;5056760;28;20177;-85
2023/10/14 04:50:10;;;;;;;8.13;1.47;;;;;;;11.66;100.00;99119.50;5036209;28;20217;-82
2023/10/14 04:52:37;;;;;;;8.10;2.20;;;;;;;11.68;100.00;99133.38;5019079;28;20224;-84
2023/10/14 04:55:19;;;;;;;4.97;1.67;;;;;;;11.86;100.00;99165.69;5018169;28;20208;-83
2023/10/14 04:57:51;;;;;;;5.73;1.47;;;;;;;11.89;100.00;99191.69;5018336;28;20769;-84
2023/10/14 05:00:31;;;;;;;4.20;1.50;;;;;;;12.05;100.00;99205.81;5018291;28;20230;-85
2023/10/14 05:03:01;;;;;;;3.80;1.77;;;;;;;11.94;100.00;99230.75;5018291;28;20255;-84
2023/10/14 05:05:30;;;;;;;3.17;1.30;;;;;;;11.93;100.00;99245.56;5020251;28;20238;-84
2023/10/14 05:07:58;;;;;;;5.70;1.93;;;;;;;11.91;100.00;99252.63;5016242;28;20202;-84
2023/10/14 05:10:28;;;;;;;4.00;1.73;;;;;;;12.02;100.00;99255.63;5021164;28;20739;-84
2023/10/14 05:12:55;;;;;;;9.23;1.27;;;;;;;12.20;100.00;99268.81;5036299;28;20242;-85
2023/10/14 05:15:21;;;;;;;8.40;1.90;;;;;;;12.05;100.00;99301.72;5034883;28;20200;-83
2023/10/14 05:17:50;;;;;;;3.53;1.47;;;;;;;11.99;100.00;99328.13;5035128;28;20209;-84
2023/10/14 05:20:28;;;;;;;4.63;1.53;;;;;;;12.12;100.00;99339.78;5035911;28;20205;-85
2023/10/14 05:22:56;;;;;;;5.20;1.80;;;;;;;12.16;100.00;99377.97;5035540;28;20971;-85
2023/10/14 05:25:27;;;;;;;7.63;1.57;;;;;;;12.19;99.40;99416.22;5035361;28;20227;-84
2023/10/14 05:27:58;;;;;;;13.03;1.70;;;;;;;12.22;97.70;99437.88;5035696;28;20716;-84
2023/10/14 05:30:32;;;;;;;4.70;1.53;;;;;;;12.14;95.16;99500.16;5035915;28;20224;-85
2023/10/14 05:33:06;;;;;;;4.30;1.40;;;;;;;12.02;95.62;99511.09;5035917;28;20656;-84
2023/10/14 05:35:38;;;;;;;4.90;1.30;;;;;;;12.01;95.82;99525.09;5031807;28;20204;-85
2023/10/14 05:38:09;;;;;;;5.50;1.63;;;;;;;12.20;96.11;99533.06;5016229;28;20254;-84
2023/10/14 05:40:37;;;;;;;5.30;1.83;;;;;;;12.14;95.17;99530.69;5020850;28;20211;-83
2023/10/14 05:43:06;;;;;;;5.87;2.80;;;;;;;12.14;95.70;99539.38;5035225;28;20225;-83
2023/10/14 05:45:34;;;;;;;4.77;1.63;;;;;;;12.02;96.00;99542.50;5035524;28;20238;-84
2023/10/14 05:48:01;;;;;;;3.17;1.10;;;;;;;12.01;95.25;99562.56;5034837;28;20207;-84
2023/10/14 05:50:27;;;;;;;4.67;1.67;;;;;;;12.02;95.75;99552.97;5036087;28;20210;-84
2023/10/14 05:52:55;;;;;;;5.10;1.73;;;;;;;11.86;96.42;99557.91;5035569;28;20233;-85
2023/10/14 05:55:21;;;;;;;5.73;1.23;;;;;;;11.91;95.41;99571.66;5035019;28;20714;-83
2023/10/14 05:57:49;;;;;;;4.20;1.23;;;;;;;11.75;95.60;99589.66;5034972;28;20298;-84
2023/10/14 06:00:23;;;;;;;6.90;1.60;;;;;;;11.90;96.49;99568.19;5035879;28;20207;-83
2023/10/14 06:02:51;;;;;;;2.77;0.90;;;;;;;11.91;94.00;99608.28;5035673;28;20311;-84
2023/10/14 06:05:18;;;;;;;4.60;1.30;;;;;;;11.95;93.85;99637.78;5034825;28;20237;-84
2023/10/14 06:07:46;;;;;;;7.07;1.40;;;;;;;11.96;93.61;99642.97;5035348;28;20208;-82
2023/10/14 06:10:20;;;;;;;8.70;2.00;;;;;;;11.86;93.74;99665.13;5035349;28;20226;-84
2023/10/14 06:12:48;;;;;;;6.17;1.10;;;;;;;11.88;93.39;99664.13;5035034;28;20265;-85
2023/10/14 06:15:17;;;;;;;7.93;1.63;;;;;;;11.85;93.17;99679.06;5036414;28;20643;-84
2023/10/14 06:17:44;;;;;;;3.77;1.50;;;;;;;11.94;92.04;99691.88;5035228;28;20205;-83
2023/10/14 06:20:13;;;;;;;5.53;1.30;;;;;;;12.06;92.37;99698.41;5035073;28;20208;-81
2023/10/14 06:22:40;;;;;;;4.00;1.47;;;;;;;11.76;92.21;99723.88;5035064;28;20224;-85
2023/10/14 06:25:07;;;;;;;3.97;1.20;;;;;;;11.85;91.99;99727.03;5036409;28;20290;-86
2023/10/14 06:27:35;;;;;;;6.73;1.77;;;;;;;11.95;92.83;99717.09;5035280;28;20729;-84
2023/10/14 06:30:03;;;;;;;4.33;1.40;;;;;;;11.82;92.51;99737.59;5036097;28;20208;-85
2023/10/14 06:32:30;;;;;;;9.10;1.67;;;;;;;11.91;91.91;99745.16;5035546;28;20322;-87
2023/10/14 06:34:58;;;;;;;4.43;1.23;;;;;;;12.04;92.14;99744.69;5035150;28;20209;-84
2023/10/14 06:37:25;;;;;;;4.47;1.60;;;;;;;11.99;92.15;99751.84;5031832;28;20212;-84
2023/10/14 06:39:52;;;;;;;2.60;1.20;;;;;;;12.10;92.77;99750.56;5035751;28;20213;-84
2023/10/14 06:42:19;;;;;;;8.73;1.50;;;;;;;12.17;93.34;99740.72;5034823;28;20248;-84
2023/10/14 06:44:47;;;;;;;9.93;1.50;;;;;;;12.17;93.43;99735.50;5034959;28;20694;-85
2023/10/14 06:47:13;;;;;;;5.13;1.47;;;;;;;12.18;94.75;99718.03;5035675;28;20223;-83
2023/10/14 06:49:41;;;;;;;3.80;1.43;;;;;;;12.34;93.83;99729.63;5035117;28;20213;-85
2023/10/14 06:52:11;;;;;;;6.83;2.20;;;;;;;12.28;93.56;99749.03;5035504;28;20223;-84
2023/10/14 06:54:41;;;;;;;4.27;1.40;;;;;;;12.49;93.37;99752.59;5032327;28;20240;-81
2023/10/14 06:57:08;;;;;;;8.03;1.50;;;;;;;12.63;92.43;99772.19;5027014;28;20216;-85
2023/10/14 06:59:35;;;;;;;5.97;1.43;;;;;;;12.46;91.15;99796.38;5034894;28;20206;-84
2023/10/14 07:02:04;;;;;;;9.03;1.80;;;;;;;12.36;92.19;99808.94;5035163;28;20223;-82
2023/10/14 07:04:37;;;;;;;5.70;1.60;;;;;;;12.48;91.72;99807.63;5035081;28;20231;-85
2023/10/14 07:07:07;;;;;;;4.13;1.10;;;;;;;12.47;91.13;99824.25;5026905;28;20239;-84
2023/10/14 07:09:35;;;;;;;3.00;1.20;;;;;;;12.45;90.38;99839.16;5036176;28;20697;-84
2023/10/14 07:12:01;;;;;;;8.70;1.50;;;;;;;12.63;90.09;99854.19;5037173;28;20275;-82
2023/10/14 07:14:28;;;;;;;4.50;1.50;;;;;;;12.60;89.01;99890.09;5036273;28;20217;-85
2023/10/14 07:16:54;;;;;;;7.93;1.50;;;;;;;12.36;88.79;99887.44;5037828;28;20199;-86
2023/10/14 07:19:23;;;;;;;9.33;2.40;;;;;;;12.35;88.24;99911.06;5037250;28;20214;-85
2023/10/14 07:21:49;;;;;;;4.40;1.87;;;;;;;12.41;88.96;99911.72;5036300;28;20232;-83
2023/10/14 07:24:16;;;;;;;3.63;1.30;;;;;;;12.45;89.35;99895.00;5037869;28;20209;-85
2023/10/14 07:26:43;;;;;;;4.40;1.40;;;;;;;12.28;89.29;99906.03;5036381;28;20325;-85
2023/10/14 07:29:10;;;;;;;6.20;1.33;;;;;;;12.52;89.82;99904.31;5037310;28;20212;-85
2023/10/14 07:31:37;;;;;;;5.90;1.70;;;;;;;12.65;88.66;99909.97;5036719;28;20718;-82
2023/10/14 07:34:08;;;;;;;5.03;1.50;;;;;;;12.46;88.94;99922.84;5038461;28;20232;-85
2023/10/14 07:36:36;;;;;;;7.17;1.53;;;;;;;12.49;90.62;99888.72;5033864;28;20203;-84
2023/10/14 07:39:27;;;;;;;3.50;1.20;;;;;;;12.67;89.85;99895.06;5039028;28;20617;-84
2023/10/14 07:41:52;;;;;;;8.87;2.73;;;;;;;12.38;89.91;99909.19;5038709;28;20228;-85
2023/10/14 07:44:19;;;;;;;7.03;1.60;;;;;;;12.44;89.93;99905.50;5039519;28;20302;-86
2023/10/14 07:46:46;;;;;;;4.57;1.80;;;;;;;12.49;87.66;99927.16;5030926;28;20223;-87
2023/10/14 07:49:13;;;;;;;5.93;1.63;;;;;;;12.53;88.25;99941.84;5029070;28;20238;-84
2023/10/14 07:51:42;;;;;;;5.07;1.27;;;;;;;12.56;89.08;99928.63;5031482;28;20229;-84
2023/10/14 07:54:12;;;;;;;7.47;1.90;;;;;;;12.69;89.56;99923.81;5028350;28;20666;-82
2023/10/14 07:56:38;;;;;;;6.33;1.33;;;;;;;12.52;89.10;99937.50;5026898;28;20207;-82
2023/10/14 07:59:08;;;;;;;6.87;1.60;;;;;;;12.76;90.07;99924.44;5029400;28;20214;-84
2023/10/14 08:01:37;;;;;;;7.93;2.30;;;;;;;12.52;90.64;99929.66;5028797;28;20228;-85
2023/10/14 08:04:13;;;;;;;5.17;1.97;;;;;;;12.70;88.94;99939.50;5027624;28;20266;-87
2023/10/14 08:06:41;;;;;;;5.60;1.73;;;;;;;12.70;88.60;99965.69;5032286;28;20269;-83
2023/10/14 08:09:23;;;;;;;5.33;1.43;;;;;;;12.61;89.54;99958.13;5031893;28;20211;-84
2023/10/14 08:11:50;;;;;;;7.07;1.80;;;;;;;12.73;88.26;99982.19;5031818;28;20234;-84
2023/10/14 08:14:16;;;;;;;5.80;1.40;;;;;;;12.77;88.07;99982.00;5027162;28;20199;-83
2023/10/14 08:16:45;;;;;;;6.93;1.80;;;;;;;12.81;88.09;99986.22;5026937;28;20199;-85
2023/10/14 08:19:11;;;;;;;4.93;1.53;;;;;;;13.06;90.36;99954.78;5025526;28;20224;-85
2023/10/14 08:21:38;;;;;;;4.17;1.60;;;;;;;12.81;88.07;99998.47;5027289;28;20267;-84
2023/10/14 08:24:06;;;;;;;7.33;2.07;;;;;;;12.65;86.38;100009.47;5028465;28;20685;-83
2023/10/14 08:26:35;;;;;;;7.60;1.77;;;;;;;12.65;87.89;100017.34;5027190;28;20727;-85
2023/10/14 08:29:01;;;;;;;5.63;1.80;;;;;;;12.71;86.48;100018.91;5027299;28;20204;-82
2023/10/14 08:31:29;;;;;;;5.17;1.57;;;;;;;12.84;85.55;100048.13;5029263;28;20223;-82
2023/10/14 08:33:55;;;;;;;10.70;1.77;;;;;;;12.85;85.24;100061.19;5027241;28;20195;-83
2023/10/14 08:36:22;;;;;;;6.17;1.60;;;;;;;12.62;86.32;100071.56;5031445;28;20198;-82
2023/10/14 08:38:49;;;;;;;8.13;1.90;;;;;;;12.67;86.17;100065.28;5035610;28;20197;-84
2023/10/14 08:41:17;;;;;;;6.93;1.93;;;;;;;12.64;86.91;100064.53;5030873;28;20210;-84
2023/10/14 08:43:49;;;;;;;8.33;1.67;;;;;;;12.70;87.45;100061.69;5037062;28;20208;-84
2023/10/14 08:46:18;;;;;;;10.40;1.90;;;;;;;12.90;86.23;100051.41;5038423;28;20290;-85
2023/10/14 08:48:50;;;;;;;11.37;1.67;;;;;;;12.88;86.06;100079.41;5037164;28;20266;-83
2023/10/14 08:51:18;;;;;;;5.53;1.40;;;;;;;12.80;87.75;100070.94;5036709;28;20204;-81
2023/10/14 08:53:53;;;;;;;4.43;1.47;;;;;;;12.77;87.31;100051.88;5027782;28;20199;-83
2023/10/14 08:56:22;;;;;;;8.63;1.60;;;;;;;12.78;85.24;100074.53;5027870;28;20201;-83
2023/10/14 08:58:49;;;;;;;6.43;1.80;;;;;;;12.78;84.66;100105.97;5026727;28;20216;-83
2023/10/14 09:01:17;;;;;;;5.47;1.53;;;;;;;12.91;86.99;100078.44;5029563;28;20566;-84
2023/10/14 09:03:46;;;;;;;9.40;2.00;;;;;;;12.90;84.42;100110.78;5029572;28;20220;-87
2023/10/14 09:06:12;;;;;;;6.80;1.90;;;;;;;12.86;80.87;100157.22;5029608;28;20262;-90
2023/10/14 09:08:42;;;;;;;8.07;1.70;;;;;;;12.83;81.76;100195.72;5031771;28;20655;-84
2023/10/14 09:11:28;;;;;;;12.17;1.50;;;;;;;12.93;82.23;100199.75;5035377;28;20216;-86
2023/10/14 09:14:02;;;;;;;5.30;1.57;;;;;;;13.24;80.28;100231.06;4686546;28;10000632;-83
2023/10/14 09:16:32;;;;;;;5.23;1.93;;;;;;;13.49;79.25;100225.84;5026994;28;20212;-86
2023/10/14 09:18:59;;;;;;;4.70;1.53;;;;;;;13.45;78.64;100275.84;5014761;28;20707;-84
2023/10/14 09:21:26;;;;;;;6.90;1.53;;;;;;;13.28;77.62;100311.31;5022976;28;20298;-83
2023/10/14 09:23:53;;;;;;;5.97;2.07;;;;;;;13.14;76.90;100329.25;5014219;28;20210;-85
2023/10/14 09:26:19;;;;;;;6.40;1.87;;;;;;;13.21;78.13;100336.00;5014503;28;20229;-84
2023/10/14 09:28:48;;;;;;;5.13;2.20;;;;;;;13.33;80.96;100279.72;5013572;28;20212;-83
2023/10/14 09:31:14;;;;;;;10.80;2.07;;;;;;;13.31;76.44;100308.59;5014790;28;20215;-82
2023/10/14 09:33:43;;;;;;;8.10;2.23;;;;;;;13.45;75.41;100370.25;5015004;28;20634;-83
2023/10/14 09:36:14;;;;;;;6.60;1.60;;;;;;;13.41;75.58;100374.72;5020953;28;20598;-83
2023/10/14 09:38:41;;;;;;;9.03;2.10;;;;;;;13.64;75.13;100389.72;5033801;28;20213;-82
2023/10/14 09:41:10;;;;;;;5.90;1.73;;;;;;;13.65;74.60;100414.19;5015191;28;20206;-84
2023/10/14 09:43:39;;;;;;;4.50;1.50;;;;;;;13.53;73.46;100480.16;5014352;28;20208;-85
2023/10/14 09:46:11;;;;;;;6.83;2.07;;;;;;;13.60;74.26;100477.28;5015193;28;20777;-84
2023/10/14 09:48:38;;;;;;;9.07;2.17;;;;;;;13.66;73.23;100460.50;5014858;28;20283;-85
2023/10/14 09:51:06;;;;;;;7.23;1.77;;;;;;;13.59;72.08;100507.03;5015125;28;20220;-83
2023/10/14 09:53:34;;;;;;;4.93;1.90;;;;;;;13.62;72.66;100501.72;5032475;28;20603;-84
2023/10/14 09:56:04;;;;;;;7.13;2.40;;;;;;;13.60;72.90;100510.53;5020027;28;20201;-84
2023/10/14 09:58:34;;;;;;;5.30;1.77;;;;;;;13.80;73.68;100495.03;5014180;28;20285;-84
2023/10/14 10:01:01;;;;;;;10.20;1.50;;;;;;;13.83;73.25;100486.19;5016304;28;20210;-85
2023/10/14 10:03:33;;;;;;;9.73;2.10;;;;;;;13.93;72.92;100516.47;5019846;28;20248;-83
2023/10/14 10:06:27;;;;;;;4.80;1.50;;;;;;;14.19;73.69;100493.78;5030705;28;20402;-83
2023/10/14 10:09:04;;;;;;;5.60;1.70;;;;;;;14.10;70.70;100540.44;5039759;28;20204;-79
2023/10/14 10:11:33;;;;;;;7.00;1.63;;;;;;;14.19;69.74;100573.44;5023538;28;20630;-80
2023/10/14 10:14:00;;;;;;;4.83;1.53;;;;;;;14.18;68.90;100608.44;5042477;28;20207;-79
2023/10/14 10:16:31;;;;;;;4.97;1.70;;;;;;;14.19;70.24;100589.19;5047437;28;20208;-78
2023/10/14 10:19:00;;;;;;;4.17;1.27;;;;;;;14.12;69.11;100592.88;5046461;28;20208;-83
2023/10/14 10:21:30;;;;;;;5.80;1.50;;;;;;;14.15;68.96;100615.56;5036758;28;20788;-82
2023/10/14 10:24:17;;;;;;;8.17;1.83;;;;;;;14.15;68.70;100619.03;5034282;28;20232;-81
2023/10/14 10:26:58;;;;;;;5.37;2.43;;;;;;;14.21;66.74;100666.13;5032667;28;20232;-81
2023/10/14 10:29:25;;;;;;;4.97;1.60;;;;;;;14.23;66.68;100679.19;5015141;28;20205;-84
2023/10/14 10:32:05;;;;;;;10.47;1.83;;;;;;;14.33;68.48;100682.41;5014833;28;20240;-84
2023/10/14 10:34:34;;;;;;;7.97;1.63;;;;;;;14.35;68.99;100678.84;5014856;28;20575;-81
2023/10/14 10:37:03;;;;;;;5.47;1.40;;;;;;;14.38;68.69;100662.13;5025744;28;20238;-82
2023/10/14 10:39:31;;;;;;;4.93;1.70;;;;;;;14.18;65.84;100713.47;5033790;28;20218;-81
2023/10/14 10:41:58;;;;;;;4.30;1.20;;;;;;;14.27;66.09;100709.69;5013731;28;20280;-82
2023/10/14 10:44:25;;;;;;;7.23;1.53;;;;;;;14.29;66.63;100727.16;5012742;28;20233;-81
2023/10/14 10:46:55;;;;;;;6.33;1.57;;;;;;;14.17;64.35;100769.53;5013222;28;20225;-82
2023/10/14 10:49:56;;;;;;;8.93;1.77;;;;;;;14.30;66.43;100755.09;5013132;28;20329;-84
2023/10/14 10:52:24;;;;;;;5.00;1.57;;;;;;;14.53;65.85;100731.69;5014024;28;20233;-83
2023/10/14 10:54:52;;;;;;;8.17;1.77;;;;;;;14.67;64.63;100732.19;5014991;28;20240;-80
2023/10/14 10:57:19;;;;;;;6.10;1.83;;;;;;;14.74;64.04;100786.25;5016954;28;20284;-83
2023/10/14 10:59:46;;;;;;;4.20;1.10;;;;;;;14.65;65.21;100792.66;5015320;28;20213;-82
2023/10/14 11:02:13;;;;;;;7.27;1.63;;;;;;;14.52;63.83;100801.75;5014742;28;20250;-83
2023/10/14 11:04:41;;;;;;;4.13;1.10;;;;;;;14.52;62.30;100814.91;5016462;28;20236;-81
2023/10/14 11:07:10;;;;;;;6.43;1.27;;;;;;;14.32;61.90;100860.13;5028432;28;20255;-83
2023/10/14 11:09:39;;;;;;;5.00;1.50;;;;;;;14.37;63.28;100850.34;5031269;28;20213;-82
2023/10/14 11:12:06;;;;;;;6.40;1.63;;;;;;;14.24;64.11;100839.31;5019463;28;20852;-83
2023/10/14 11:14:32;;;;;;;4.87;1.43;;;;;;;14.31;64.42;100826.91;5023178;28;20664;-82
2023/10/14 11:16:59;;;;;;;6.13;2.07;;;;;;;14.36;64.90;100816.25;5019192;28;20207;-80
2023/10/14 11:19:27;;;;;;;4.70;1.37;;;;;;;14.54;63.74;100820.13;5021487;28;20213;-82
2023/10/14 11:21:58;;;;;;;4.47;1.70;;;;;;;14.41;63.41;100811.72;5018569;28;20834;-84
2023/10/14 11:24:26;;;;;;;8.43;2.00;;;;;;;14.54;62.28;100826.22;5024508;28;20209;-81
2023/10/14 11:26:54;;;;;;;8.90;1.80;;;;;;;14.57;63.33;100834.06;5032930;28;20233;-83
2023/10/14 11:29:23;;;;;;;7.23;1.90;;;;;;;14.70;61.72;100806.50;5032269;28;20206;-83
2023/10/14 11:31:53;;;;;;;6.60;1.83;;;;;;;14.84;62.08;100829.72;5032502;28;20813;-83
2023/10/14 11:34:21;;;;;;;9.33;2.30;;;;;;;14.65;59.88;100874.09;5024492;28;20213;-82
2023/10/14 11:36:49;;;;;;;6.00;1.37;;;;;;;14.70;61.97;100871.31;5036538;28;20218;-83
2023/10/14 11:39:18;;;;;;;6.23;1.90;;;;;;;14.51;61.09;100886.75;5022865;28;20212;-84
2023/10/14 11:41:47;;;;;;;9.33;1.67;;;;;;;14.81;61.99;100865.78;5018845;28;20234;-82